Jask, Iran
Current Conditions -  °F | °C
As of 8:00 AM on Thursday 23 Oct 2014 (Local Time) from OIZJ Reporting Station
Clear Clear  
Wind Chill: 82°   Ceiling: Unl
Heat Index: 92°   Visibility: 4mi
Dew Point: 79°   Wind: 16mph
Humidity: 89%   Direction: 90°E
Pressure: 29.91"   Gusts: NA
Location:  25.65°N, 57.78°E
Report Text: OIZJ 230500Z 09014KT 6000 SKC 28/26 Q1013
Loading
Personal Weather Stations






























Interactive Weather Map
Tropical Storm Tracking
New forecast layout! Learn more

10-Day Weather Forecast

Advertisements
Track Severe Weather on mobile